Nearby METAR Reports

 

KAGC - Pittsburgh/Alleg, Pennsylvania, USA
Distance from station: N 14mi, 23km
Updated: Thu, Jul-29-2021 2:53pm EDT
Partly cloudy
Partly cloudy
 Wind from SW
Wind: SW 14 mph , 22 km/h, Gust: 24 mph , 39 km/h
Temperature: 81°F , 27°C
Heat Index: 85°F , 29°C
Dew Point: 72°F , 22°C
Humidity: 74%
Barometer: 29.88 inHg , 1011.9 hPa
Clouds: Partly cloudy
Visibility: 7 miles , 11 km
Cloud details: Partly cloudy 1600 ft
2021/07/29 18:53 KAGC 291853Z 23012G21KT 7SM SCT016 27/22 A2988 RMK AO2 SLP111 T02670217
KAFJ - Washington, Pennsylvania, USA
Distance from station: W 17mi, 28km
Updated: Thu, Jul-29-2021 2:56pm EDT
Overcast
Overcast
 Wind from SW
Wind: SW 15 mph , 24 km/h, Gust: 21 mph , 33 km/h
Temperature: 79°F , 26°C
Dew Point: 72°F , 22°C
Humidity: 79%
Barometer: 29.92 inHg , 1013.2 hPa
Clouds: Overcast
Visibility: 10 miles , 16 km
Cloud details: Overcast 1800 ft
2021/07/29 18:56 KAFJ 291856Z AUTO 23013G18KT 10SM OVC018 26/22 A2992 RMK AO2 SLP123 T02610222
 
KLBE - Latrobe, Pennsylvania, USA
Distance from station: ENE 30mi, 48km
Updated: Thu, Jul-29-2021 2:47pm EDT
Partly cloudy
Partly cloudy
 Wind from SSW
Wind: SSW 15 mph , 24 km/h
Temperature: 77°F , 25°C
Dew Point: 73°F , 23°C
Humidity: 89%
Barometer: 29.89 inHg , 1012.2 hPa
Clouds: Partly cloudy
Visibility: 9 miles , 14 km
Cloud details: Few Clouds 3700 ft
Partly cloudy 5000 ft
2021/07/29 18:47 KLBE 291847Z 21013KT 9SM FEW037 SCT050 25/23 A2989
KPIT - Pittsburgh, Pennsylvania, USA
Distance from station: NW 30mi, 48km
Updated: Thu, Jul-29-2021 2:51pm EDT
Mostly cloudy
Mostly cloudy
 Wind from WSW
Wind: WSW 14 mph , 22 km/h, Gust: 24 mph , 39 km/h
Temperature: 81°F , 27°C
Heat Index: 85°F , 29°C
Dew Point: 70°F , 21°C
Humidity: 70%
Barometer: 29.87 inHg , 1011.5 hPa
Clouds: Mostly cloudy
Visibility: 10 miles , 16 km
Cloud details: Mostly cloudy 1600 ft
Mostly cloudy 12000 ft
2021/07/29 18:51 KPIT 291851Z 24012G21KT 10SM BKN016 BKN120 27/21 A2987 RMK AO2 SLP112 T02670211
 
KMGW - Morgantown, West Virginia, USA
Distance from station: S 34mi, 55km
Updated: Thu, Jul-29-2021 2:53pm EDT
Clear
Clear
 Wind from SSW
Wind: SSW 10 mph , 17 km/h
Temperature: 77°F , 25°C
Dew Point: 70°F , 21°C
Humidity: 79%
Barometer: 29.94 inHg , 1013.9 hPa
Clouds: Clear
Visibility: 7 miles , 11 km
2021/07/29 18:53 KMGW 291853Z 20009KT 7SM CLR 25/21 A2994 RMK AO2 RAE07 SLP128 P0001 T02500211
KHLG - Wheeling, West Virginia, USA
Distance from station: W 37mi, 60km
Updated: Thu, Jul-29-2021 2:53pm EDT
Mostly cloudy
Mostly cloudy
 Wind from SW
Wind: SW 10 mph , 17 km/h
Temperature: 79°F , 26°C
Dew Point: 72°F , 22°C
Humidity: 79%
Barometer: 29.89 inHg , 1012.2 hPa
Clouds: Mostly cloudy
Visibility: 10 miles , 16 km
Cloud details: Mostly cloudy 2100 ft
2021/07/29 18:53 KHLG 291853Z 23009KT 10SM BKN021 26/22 A2989 RMK AO2 SLP116 T02610222
 
KBTP - Butler Co., Pennsylvania, USA
Distance from station: N 43mi, 69km
Updated: Thu, Jul-29-2021 3:12pm EDT
Overcast
Overcast
 Wind from WSW
Wind: WSW 12 mph , 19 km/h
Temperature: 79°F , 26°C
Dew Point: 70°F , 21°C
Humidity: 74%
Barometer: 29.87 inHg , 1011.5 hPa
Clouds: Overcast
Visibility: 10 miles , 16 km
Cloud details: Partly cloudy 2400 ft
Mostly cloudy 3100 ft
Overcast 4100 ft
2021/07/29 19:12 KBTP 291912Z AUTO 24010KT 10SM SCT024 BKN031 OVC041 26/21 A2987 RMK AO2
KBVI - Beaver Falls Arp, Pennsylvania, USA
Distance from station: NNW 49mi, 79km
Updated: Thu, Jul-29-2021 3:35pm EDT
Mostly cloudy
Mostly cloudy
 Wind from WSW
Wind: WSW 10 mph , 17 km/h
Temperature: 81°F , 27°C
Heat Index: 85°F , 29°C
Dew Point: 70°F , 21°C
Humidity: 70%
Barometer: 29.86 inHg , 1011.2 hPa
Clouds: Mostly cloudy
Visibility: 10 miles , 16 km
Cloud details: Partly cloudy 3800 ft
Partly cloudy 5000 ft
Mostly cloudy 6000 ft
2021/07/29 19:35 KBVI 291935Z AUTO 24009KT 10SM SCT038 SCT050 BKN060 27/21 A2986 RMK AO2 T02710205
 
K2G4 - Garrett Co, Maryland, USA
Distance from station: SE 51mi, 82km
Updated: Thu, Jul-29-2021 3:35pm EDT
Mostly cloudy
Mostly cloudy
 Wind from WSW
Wind: WSW 14 mph , 22 km/h, Gust: 21 mph , 33 km/h
Temperature: 70°F , 21°C
Dew Point: 66°F , 19°C
Humidity: 88%
Barometer: 30.00 inHg , 1015.9 hPa
Clouds: Mostly cloudy
Visibility: 10 miles , 16 km
Cloud details: Partly cloudy 1000 ft
Mostly cloudy 1500 ft
Mostly cloudy 12000 ft
2021/07/29 19:35 K2G4 291935Z AUTO 24012G18KT 222V282 10SM SCT010 BKN015 BKN120 21/19 A3000 RMK AO1
KIDI - Indiana/Stewart, Pennsylvania, USA
Distance from station: NE 56mi, 90km
Updated: Thu, Jul-29-2021 3:35pm EDT
Overcast
Overcast
 Wind from WSW
Wind: WSW 14 mph , 22 km/h
Temperature: 75°F , 24°C
Dew Point: 73°F , 23°C
Humidity: 94%
Barometer: 29.90 inHg , 1012.5 hPa
Clouds: Overcast
Visibility: 9 miles , 14 km
Cloud details: Mostly cloudy 1400 ft
Mostly cloudy 2100 ft
Overcast 7500 ft
2021/07/29 19:35 KIDI 291935Z AUTO 24012KT 9SM BKN014 BKN021 OVC075 24/23 A2990 RMK A01
 
KJST - Johnstown, Pennsylvania, USA
Distance from station: ENE 60mi, 96km
Updated: Thu, Jul-29-2021 3:31pm EDT
Haze, Mostly cloudy
Haze, Mostly cloudy
 Wind from WSW
Wind: WSW 13 mph , 20 km/h
Temperature: 73°F , 23°C
Dew Point: 66°F , 19°C
Humidity: 78%
Barometer: 29.92 inHg , 1013.2 hPa
Summary: Haze
Clouds: Mostly cloudy
Visibility: 6 miles , 10 km
Cloud details: Mostly cloudy 1700 ft
Mostly cloudy 7500 ft
2021/07/29 19:31 KJST 291931Z AUTO 24011KT 6SM HZ BKN017 BKN075 23/19 A2992 RMK AO2 T02280194
KCBE - Cumberland Reg, Maryland, USA
Distance from station: ESE 72mi, 116km
Updated: Thu, Jul-29-2021 3:15pm EDT
Overcast
Overcast
 Wind from SE
Wind: SE 3 mph , 6 km/h
Temperature: 79°F , 26°C
Dew Point: 72°F , 22°C
Humidity: 79%
Barometer: 29.93 inHg , 1013.5 hPa
Clouds: Overcast
Visibility: 10 miles , 16 km
Cloud details: Partly cloudy 4000 ft
Partly cloudy 5000 ft
Overcast 11000 ft
2021/07/29 19:15 KCBE 291915Z AUTO 13003KT 10SM SCT040 SCT050 OVC110 26/22 A2993 RMK AO2 T02590220
 
KILG - Wilmington, Delaware, USA
Distance from station: ESE 234mi, 377km
Updated: Thu, Jul-29-2021 2:51pm EDT
Partly cloudy
Partly cloudy
 Wind from SSE
Wind: SSE 12 mph , 19 km/h
Temperature: 81°F , 27°C
Heat Index: 86°F , 30°C
Dew Point: 73°F , 23°C
Humidity: 79%
Barometer: 29.89 inHg , 1012.2 hPa
Clouds: Partly cloudy
Visibility: 9 miles , 14 km
Cloud details: Partly cloudy 2500 ft
2021/07/29 18:51 KILG 291851Z 15010KT 9SM SCT025 27/23 A2989 RMK AO2 SLP120 T02670228
KTUS - Tucson, Arizona, USA
Distance from station: WSW 1806mi, 3283km
Updated: Thu, Jul-29-2021 2:53pm EDT
Few Clouds
Few Clouds
 Wind from SE
Wind: SE 5 mph , 7 km/h
Temperature: 88°F , 31°C
Heat Index: 88°F , 31°C
Dew Point: 61°F , 16°C
Humidity: 40%
Barometer: 30.03 inHg , 1016.9 hPa
Clouds: Few Clouds
Visibility: 10 miles , 16 km
Cloud details: Few Clouds 10000 ft
2021/07/29 18:53 KTUS 291853Z 14004KT 10SM FEW100 31/16 A3003 RMK AO2 SLP118 T03060161